Time;durP1;ratioP1;P1;durP2;ratioP2;P2;SDS_P1;SDS_P2;PMS_P1;PMS_P2;Temp;Humidity;BMP_temperature;BMP_pressure;BME280_temperature;BME280_humidity;BME280_pressure;Samples;Min_cycle;Max_cycle;Signal;HPM_P1;HPM_P2
2021/05/31 00:02:25;;;;;;;9.13;2.55;;;28.60;34.20;;;;;;5049766;28;20036;-78
2021/05/31 00:04:51;;;;;;;11.38;2.80;;;28.60;34.40;;;;;;5064147;28;20104;-78
2021/05/31 00:07:19;;;;;;;11.70;2.92;;;28.50;34.20;;;;;;5064791;28;20135;-79
2021/05/31 00:09:46;;;;;;;7.10;2.55;;;28.50;34.50;;;;;;5065584;28;20189;-78
2021/05/31 00:12:16;;;;;;;14.70;2.83;;;28.40;34.40;;;;;;5065472;28;20025;-79
2021/05/31 00:14:44;;;;;;;9.63;3.00;;;28.50;34.00;;;;;;5066824;28;20038;-78
2021/05/31 00:17:11;;;;;;;10.18;3.22;;;28.40;34.20;;;;;;5063075;28;20033;-79
2021/05/31 00:19:38;;;;;;;12.23;2.60;;;28.50;34.00;;;;;;5064230;28;20490;-79
2021/05/31 00:22:05;;;;;;;15.68;3.17;;;28.20;34.20;;;;;;5064412;28;20029;-78
2021/05/31 00:24:31;;;;;;;10.88;1.80;;;28.20;34.40;;;;;;5063862;28;20032;-79
2021/05/31 00:26:58;;;;;;;14.20;2.72;;;28.20;34.40;;;;;;5064919;28;20041;-78
2021/05/31 00:29:25;;;;;;;14.82;3.53;;;28.20;34.70;;;;;;5064527;28;20441;-78
2021/05/31 00:31:53;;;;;;;13.38;4.13;;;28.30;34.10;;;;;;5071846;28;20047;-78
2021/05/31 00:34:20;;;;;;;8.25;2.17;;;28.40;33.90;;;;;;5074015;28;20027;-77
2021/05/31 00:36:47;;;;;;;12.80;3.35;;;28.10;34.90;;;;;;5079470;28;20092;-78
2021/05/31 00:39:13;;;;;;;12.77;3.03;;;28.20;34.40;;;;;;5089907;28;20162;-78
2021/05/31 00:41:44;;;;;;;9.48;2.72;;;28.10;35.00;;;;;;5066667;28;20479;-77
2021/05/31 00:44:11;;;;;;;10.90;4.22;;;28.00;34.40;;;;;;5069974;28;20028;-78
2021/05/31 00:46:37;;;;;;;13.25;2.85;;;27.90;35.10;;;;;;5048870;28;20111;-77
2021/05/31 00:49:04;;;;;;;8.70;2.35;;;27.90;34.60;;;;;;5049905;28;20025;-78
2021/05/31 00:51:30;;;;;;;13.75;2.42;;;27.90;34.30;;;;;;5048508;28;20117;-78
2021/05/31 00:53:58;;;;;;;9.35;3.08;;;27.70;34.90;;;;;;5064545;28;20020;-78
2021/05/31 00:56:25;;;;;;;9.50;2.17;;;27.60;34.80;;;;;;5060055;28;20044;-78
2021/05/31 00:58:52;;;;;;;11.05;3.13;;;27.80;34.30;;;;;;5062494;28;20028;-77
2021/05/31 01:01:21;;;;;;;9.48;2.85;;;27.70;34.90;;;;;;5065117;28;20116;-77
2021/05/31 01:03:47;;;;;;;11.88;3.53;;;27.50;34.90;;;;;;5065690;28;20399;-78
2021/05/31 01:06:18;;;;;;;13.85;2.78;;;27.40;35.90;;;;;;5059517;28;20063;-77
2021/05/31 01:08:58;;;;;;;12.90;3.47;;;27.60;35.00;;;;;;5064462;28;20359;-77
2021/05/31 01:11:58;;;;;;;10.70;3.22;;;27.30;35.70;;;;;;5062616;28;20059;-77
2021/05/31 01:14:35;;;;;;;9.68;3.13;;;27.30;35.40;;;;;;5065654;28;20052;-77
2021/05/31 01:17:26;;;;;;;18.50;3.70;;;27.00;36.10;;;;;;5062213;28;20021;-78
2021/05/31 01:19:53;;;;;;;6.70;2.20;;;27.00;36.90;;;;;;5065066;28;20445;-77
2021/05/31 01:22:29;;;;;;;8.65;2.72;;;27.10;35.60;;;;;;5063146;28;20063;-78
2021/05/31 01:25:17;;;;;;;12.63;3.05;;;27.00;35.90;;;;;;5046705;28;20021;-78
2021/05/31 01:27:55;;;;;;;14.75;5.35;;;26.90;36.00;;;;;;5063091;28;20027;-78
2021/05/31 01:30:23;;;;;;;13.43;4.43;;;26.60;36.50;;;;;;5067329;28;20029;-77
2021/05/31 01:32:55;;;;;;;12.07;4.57;;;26.30;36.30;;;;;;5060831;28;20341;-78
2021/05/31 01:35:28;;;;;;;11.68;4.20;;;26.50;37.00;;;;;;5061423;28;20028;-79
2021/05/31 01:37:57;;;;;;;12.15;2.80;;;26.30;37.00;;;;;;5048958;28;20029;-79
2021/05/31 01:40:24;;;;;;;11.98;4.15;;;26.40;37.10;;;;;;5064764;28;20459;-78
2021/05/31 01:42:56;;;;;;;11.32;4.60;;;26.30;36.60;;;;;;5065064;28;20036;-78
2021/05/31 01:45:23;;;;;;;13.98;3.85;;;26.20;36.90;;;;;;5045282;28;20033;-78
2021/05/31 01:47:51;;;;;;;22.42;6.93;;;26.10;37.30;;;;;;5047988;28;20459;-77
2021/05/31 01:50:18;;;;;;;13.70;3.45;;;26.20;36.80;;;;;;5045673;28;20033;-77
2021/05/31 01:52:46;;;;;;;76.70;45.60;;;25.90;36.80;;;;;;5065652;28;20052;-77
2021/05/31 01:55:15;;;;;;;11.73;4.05;;;25.70;37.40;;;;;;5061548;28;20471;-77
2021/05/31 01:57:44;;;;;;;11.82;7.07;;;25.70;37.10;;;;;;5065765;28;20036;-77
2021/05/31 02:00:11;;;;;;;11.30;5.38;;;25.40;37.30;;;;;;5066300;28;20052;-76
2021/05/31 02:02:38;;;;;;;19.10;5.63;;;25.20;37.50;;;;;;5060276;28;20029;-77
2021/05/31 02:05:09;;;;;;;22.67;14.20;;;25.10;37.70;;;;;;5043263;28;20562;-77
2021/05/31 02:07:39;;;;;;;12.43;4.82;;;24.70;38.40;;;;;;5061309;28;20021;-77
2021/05/31 02:10:11;;;;;;;12.45;3.17;;;24.60;38.50;;;;;;5062591;28;20025;-77
2021/05/31 02:13:01;;;;;;;11.05;3.97;;;24.40;38.70;;;;;;5046126;28;20373;-76
2021/05/31 02:15:38;;;;;;;28.58;5.20;;;24.20;38.90;;;;;;5067512;28;20029;-77
2021/05/31 02:18:14;;;;;;;15.57;3.50;;;24.00;39.40;;;;;;5062829;28;20046;-77
2021/05/31 02:20:43;;;;;;;5.32;2.13;;;23.70;39.70;;;;;;5060713;28;20039;-77
2021/05/31 02:23:11;;;;;;;10.73;4.35;;;23.30;40.50;;;;;;5044577;28;20039;-76
2021/05/31 02:25:38;;;;;;;16.25;3.90;;;23.30;40.40;;;;;;5061809;28;20037;-77
2021/05/31 02:28:06;;;;;;;16.85;4.25;;;22.90;40.60;;;;;;5063239;28;20032;-77
2021/05/31 02:30:33;;;;;;;11.50;3.38;;;22.90;41.30;;;;;;5063164;28;20345;-77
2021/05/31 02:33:03;;;;;;;11.43;3.15;;;22.70;41.70;;;;;;5061413;28;20111;-77
2021/05/31 02:35:32;;;;;;;13.52;4.45;;;22.50;42.00;;;;;;5048615;28;20455;-76
2021/05/31 02:38:02;;;;;;;10.02;4.05;;;22.10;42.30;;;;;;5045543;28;20029;-76
2021/05/31 02:40:28;;;;;;;15.02;4.70;;;22.20;42.50;;;;;;5061190;28;20082;-77
2021/05/31 02:42:57;;;;;;;9.13;2.28;;;22.00;42.10;;;;;;5063543;28;20020;-77
2021/05/31 02:45:26;;;;;;;20.88;5.07;;;21.80;43.30;;;;;;5065314;28;20052;-77
2021/05/31 02:47:54;;;;;;;14.73;4.32;;;21.60;43.50;;;;;;5060740;28;20036;-76
2021/05/31 02:50:21;;;;;;;25.27;5.45;;;21.30;44.00;;;;;;5059540;28;20037;-76
2021/05/31 02:52:48;;;;;;;12.40;3.83;;;21.30;44.10;;;;;;5064690;28;20040;-77
2021/05/31 02:55:19;;;;;;;7.90;3.70;;;21.20;44.00;;;;;;5061474;28;20031;-76
2021/05/31 02:57:46;;;;;;;9.27;3.37;;;21.00;44.90;;;;;;5060848;28;20030;-77
2021/05/31 03:00:16;;;;;;;18.85;4.00;;;20.90;44.70;;;;;;5059944;28;20033;-77
2021/05/31 03:02:43;;;;;;;16.67;4.43;;;20.80;44.80;;;;;;5064405;28;20066;-77
2021/05/31 03:05:12;;;;;;;13.15;3.78;;;20.80;44.30;;;;;;5063366;28;20036;-77
2021/05/31 03:07:38;;;;;;;9.00;3.38;;;20.50;44.70;;;;;;5063501;28;20100;-76
2021/05/31 03:10:05;;;;;;;8.55;3.10;;;20.50;44.60;;;;;;5064880;28;20024;-76
2021/05/31 03:12:32;;;;;;;19.60;4.82;;;20.50;45.30;;;;;;5062749;28;20024;-77
2021/05/31 03:14:58;;;;;;;17.27;3.15;;;20.50;45.60;;;;;;5060114;28;20025;-76
2021/05/31 03:17:25;;;;;;;13.05;3.35;;;20.40;44.70;;;;;;5069027;28;20037;-76
2021/05/31 03:19:51;;;;;;;18.00;4.50;;;20.20;45.10;;;;;;5054554;28;20063;-77
2021/05/31 03:22:17;;;;;;;13.48;3.33;;;20.10;44.70;;;;;;5067734;28;20036;-76
2021/05/31 03:24:44;;;;;;;19.95;6.55;;;20.10;45.20;;;;;;5061555;28;20457;-76
2021/05/31 03:27:10;;;;;;;12.60;3.28;;;20.20;45.30;;;;;;5066669;28;20032;-78
2021/05/31 03:29:37;;;;;;;13.65;3.03;;;20.20;44.90;;;;;;5064838;28;20111;-76
2021/05/31 03:32:04;;;;;;;16.13;3.03;;;20.00;45.20;;;;;;5064478;28;20033;-78
2021/05/31 03:34:30;;;;;;;14.88;4.57;;;20.30;46.20;;;;;;5064307;28;20166;-77
2021/05/31 03:36:57;;;;;;;18.92;5.22;;;20.00;45.50;;;;;;5068027;28;20032;-76
2021/05/31 03:39:24;;;;;;;19.73;4.95;;;19.90;46.50;;;;;;5048110;28;20036;-77
2021/05/31 03:41:50;;;;;;;16.67;4.03;;;19.60;46.90;;;;;;5064826;28;20155;-76
2021/05/31 03:44:17;;;;;;;11.00;3.95;;;19.50;46.70;;;;;;5064151;28;20021;-76
2021/05/31 03:46:43;;;;;;;14.70;4.13;;;19.10;48.60;;;;;;5064120;28;20162;-75
2021/05/31 03:49:10;;;;;;;15.50;4.68;;;19.20;48.00;;;;;;5045133;28;20043;-76
2021/05/31 03:51:36;;;;;;;15.40;3.33;;;19.10;48.40;;;;;;5066655;28;20020;-75
2021/05/31 03:54:03;;;;;;;14.20;4.20;;;18.90;48.90;;;;;;5063349;28;20059;-76
2021/05/31 03:56:29;;;;;;;20.60;5.40;;;19.00;48.60;;;;;;5062946;28;20445;-76
2021/05/31 03:58:56;;;;;;;14.20;4.13;;;19.00;46.40;;;;;;5064170;28;20029;-76
2021/05/31 04:01:22;;;;;;;13.93;4.00;;;19.10;48.00;;;;;;5063901;28;20029;-76
2021/05/31 04:03:48;;;;;;;20.55;5.30;;;19.00;47.90;;;;;;5073993;28;20080;-76
2021/05/31 04:06:25;;;;;;;15.88;2.78;;;19.10;46.60;;;;;;5087527;28;20041;-77
2021/05/31 04:11:38;;;;;;;11.27;3.53;;;19.10;47.30;;;;;;5012906;28;20045;-76
2021/05/31 04:14:12;;;;;;;13.43;3.40;;;19.00;46.40;;;;;;5066088;28;20028;-75
2021/05/31 04:16:44;;;;;;;21.98;4.28;;;19.00;47.70;;;;;;5062282;28;20036;-76
2021/05/31 04:19:12;;;;;;;11.60;4.28;;;18.90;48.30;;;;;;5047333;28;20024;-76
2021/05/31 04:21:41;;;;;;;19.33;4.63;;;18.90;48.20;;;;;;5062755;28;20097;-76
2021/05/31 04:24:08;;;;;;;13.63;4.43;;;18.70;46.90;;;;;;5064409;28;20020;-76
2021/05/31 04:26:35;;;;;;;10.23;3.22;;;18.70;48.40;;;;;;5062331;28;20033;-76
2021/05/31 04:29:07;;;;;;;19.63;4.90;;;18.60;48.30;;;;;;5063911;28;20116;-76
2021/05/31 04:31:34;;;;;;;14.15;5.93;;;18.60;47.10;;;;;;5062364;28;20024;-76
2021/05/31 04:34:04;;;;;;;13.35;4.72;;;18.60;47.60;;;;;;5064044;28;20024;-76
2021/05/31 04:36:32;;;;;;;18.23;3.63;;;18.60;47.60;;;;;;5062203;28;20027;-76
2021/05/31 04:38:59;;;;;;;14.15;2.72;;;18.50;48.60;;;;;;5063561;28;20037;-76
2021/05/31 04:41:26;;;;;;;16.80;3.78;;;18.50;48.20;;;;;;5046807;28;20097;-76
2021/05/31 04:43:52;;;;;;;16.30;4.80;;;18.50;48.10;;;;;;5047255;28;20052;-77
2021/05/31 04:46:19;;;;;;;17.42;5.53;;;18.40;49.60;;;;;;5047370;28;20503;-76
2021/05/31 04:48:45;;;;;;;15.57;3.53;;;18.40;48.80;;;;;;5065004;28;20035;-76
2021/05/31 04:51:12;;;;;;;12.65;4.75;;;18.30;49.70;;;;;;5063045;28;20033;-76
2021/05/31 04:53:38;;;;;;;17.60;5.80;;;18.20;49.10;;;;;;5064181;28;20166;-76
2021/05/31 04:56:07;;;;;;;15.43;5.40;;;18.20;48.80;;;;;;5063844;28;20028;-76
2021/05/31 04:58:34;;;;;;;22.85;4.70;;;18.10;48.70;;;;;;5063298;28;20033;-76
2021/05/31 05:01:01;;;;;;;10.00;3.60;;;18.10;50.60;;;;;;5061860;28;20487;-76
2021/05/31 05:03:28;;;;;;;17.98;3.45;;;18.00;50.40;;;;;;5061208;28;20033;-76
2021/05/31 05:05:54;;;;;;;16.08;4.47;;;18.00;50.10;;;;;;5046118;28;20356;-77
2021/05/31 05:08:21;;;;;;;11.63;4.72;;;18.00;50.50;;;;;;5061002;28;20049;-76
2021/05/31 05:10:48;;;;;;;8.82;4.20;;;18.00;49.10;;;;;;5063509;28;20017;-76
2021/05/31 05:13:14;;;;;;;14.25;4.03;;;17.90;49.70;;;;;;5047057;28;20059;-76
2021/05/31 05:15:40;;;;;;;14.05;3.13;;;17.90;50.00;;;;;;5064488;28;20170;-76
2021/05/31 05:18:07;;;;;;;15.20;4.85;;;17.90;50.10;;;;;;5044375;28;20025;-76
2021/05/31 05:20:35;;;;;;;13.95;4.90;;;17.90;51.00;;;;;;5063556;28;20024;-76
2021/05/31 05:23:02;;;;;;;16.70;3.85;;;18.00;51.00;;;;;;5064381;28;20089;-77
2021/05/31 05:25:30;;;;;;;15.02;3.50;;;17.90;51.20;;;;;;5045313;28;20021;-75
2021/05/31 05:27:57;;;;;;;17.95;4.35;;;17.90;50.00;;;;;;5048260;28;20063;-76
2021/05/31 05:30:26;;;;;;;16.20;4.18;;;17.80;50.60;;;;;;5047384;28;20029;-77
2021/05/31 05:32:59;;;;;;;9.38;4.97;;;17.80;50.10;;;;;;5063877;28;20028;-77
2021/05/31 05:35:32;;;;;;;16.77;4.55;;;17.80;51.30;;;;;;5063405;28;20104;-77
2021/05/31 05:48:12;;;;;;;16.05;3.75;;;17.50;52.70;;;;;;5064259;28;20025;-76
2021/05/31 05:50:39;;;;;;;23.52;5.20;;;17.60;52.40;;;;;;5047589;28;20024;-75
2021/05/31 05:53:05;;;;;;;19.65;5.50;;;17.60;52.00;;;;;;5061740;28;20032;-75
2021/05/31 05:55:32;;;;;;;11.23;3.13;;;17.60;52.20;;;;;;5045833;28;20055;-75
2021/05/31 05:57:58;;;;;;;17.77;3.58;;;17.50;51.50;;;;;;5064267;28;20523;-75
2021/05/31 06:00:27;;;;;;;16.25;4.05;;;17.40;51.60;;;;;;5062593;28;20487;-76
2021/05/31 06:02:54;;;;;;;10.48;4.38;;;17.40;52.40;;;;;;5066398;28;20440;-76
2021/05/31 06:05:22;;;;;;;15.30;3.65;;;17.30;53.20;;;;;;5063191;28;20028;-76
2021/05/31 06:07:49;;;;;;;11.73;4.18;;;17.40;52.20;;;;;;5045432;28;20412;-76
2021/05/31 06:10:16;;;;;;;16.15;5.30;;;17.40;52.50;;;;;;5047565;28;20030;-75
2021/05/31 06:12:43;;;;;;;27.70;5.03;;;17.30;52.30;;;;;;5062770;28;20037;-76
2021/05/31 06:15:11;;;;;;;14.90;4.38;;;17.30;53.10;;;;;;5062514;28;20028;-76
2021/05/31 06:17:38;;;;;;;12.95;4.35;;;17.30;53.60;;;;;;5062389;28;20017;-76
2021/05/31 06:20:06;;;;;;;12.63;3.33;;;17.20;54.00;;;;;;5061568;28;20482;-75
2021/05/31 06:22:37;;;;;;;14.30;3.40;;;17.20;53.70;;;;;;5044062;28;20048;-76
2021/05/31 06:25:05;;;;;;;15.75;4.03;;;17.30;51.70;;;;;;5062643;28;20024;-76
2021/05/31 06:27:32;;;;;;;19.40;3.85;;;17.20;53.00;;;;;;5045273;28;20110;-77
2021/05/31 06:29:58;;;;;;;19.70;4.72;;;17.30;52.10;;;;;;5061924;28;20013;-76
2021/05/31 06:32:25;;;;;;;22.38;5.65;;;17.50;52.30;;;;;;5064711;28;20464;-75
2021/05/31 06:34:51;;;;;;;17.80;3.30;;;17.50;52.80;;;;;;5062845;28;20395;-75
2021/05/31 06:37:18;;;;;;;7.97;2.75;;;17.40;52.00;;;;;;5061517;28;20028;-76
2021/05/31 06:39:44;;;;;;;19.65;3.42;;;17.20;53.40;;;;;;5043883;28;20321;-76
2021/05/31 06:42:11;;;;;;;17.55;3.47;;;17.20;52.70;;;;;;5048413;28;20106;-76
2021/05/31 06:44:39;;;;;;;18.38;3.63;;;17.20;52.30;;;;;;5066055;28;20013;-76
2021/05/31 06:47:08;;;;;;;16.17;4.55;;;17.20;52.60;;;;;;5048957;28;20111;-76
2021/05/31 06:49:38;;;;;;;20.95;4.50;;;17.20;51.90;;;;;;5048119;28;20175;-76
2021/05/31 06:52:05;;;;;;;5.65;2.63;;;17.20;52.20;;;;;;5065519;28;20036;-76
2021/05/31 06:54:32;;;;;;;18.00;3.63;;;17.10;53.50;;;;;;5047700;28;20159;-76
2021/05/31 06:56:59;;;;;;;25.20;3.88;;;17.10;53.60;;;;;;5065074;28;20035;-76
2021/05/31 06:59:26;;;;;;;11.63;2.40;;;17.00;53.00;;;;;;5062158;28;20082;-76
2021/05/31 07:01:52;;;;;;;15.20;4.80;;;17.10;53.30;;;;;;5046965;28;20041;-76
2021/05/31 07:04:19;;;;;;;8.80;4.53;;;17.20;52.30;;;;;;5048296;28;20020;-75
2021/05/31 07:06:46;;;;;;;17.45;3.97;;;17.10;52.90;;;;;;5062737;28;20032;-76
2021/05/31 07:09:13;;;;;;;14.20;3.17;;;17.10;52.30;;;;;;5049623;28;20042;-75
2021/05/31 07:11:43;;;;;;;14.25;4.32;;;17.10;52.70;;;;;;5067813;28;20444;-75
2021/05/31 07:14:18;;;;;;;16.00;4.72;;;17.20;54.10;;;;;;5068582;28;20017;-76
2021/05/31 07:16:45;;;;;;;13.70;3.15;;;17.10;52.80;;;;;;5049679;28;20067;-76
2021/05/31 07:19:12;;;;;;;15.68;3.92;;;16.90;54.50;;;;;;5044229;28;20036;-76
2021/05/31 07:21:42;;;;;;;22.42;5.72;;;16.90;53.20;;;;;;5070478;28;20038;-76
2021/05/31 07:24:10;;;;;;;13.52;4.13;;;16.80;53.70;;;;;;5062053;28;20052;-75
2021/05/31 07:26:37;;;;;;;18.02;4.90;;;16.80;54.10;;;;;;5066333;28;20047;-75
2021/05/31 07:29:05;;;;;;;16.30;4.88;;;16.70;54.00;;;;;;5063719;28;20036;-77
2021/05/31 07:31:31;;;;;;;18.10;4.50;;;16.70;53.30;;;;;;5066293;28;20043;-76
2021/05/31 07:33:58;;;;;;;19.88;4.97;;;16.70;53.60;;;;;;5065909;28;20364;-76
2021/05/31 07:36:25;;;;;;;11.80;4.40;;;16.70;54.20;;;;;;5068180;28;20111;-76
2021/05/31 07:38:52;;;;;;;13.57;3.90;;;16.80;55.00;;;;;;5049066;28;20087;-76
2021/05/31 07:41:19;;;;;;;19.27;4.97;;;16.80;54.80;;;;;;5069171;28;20085;-76
2021/05/31 07:43:46;;;;;;;21.35;5.65;;;16.80;55.40;;;;;;5067897;28;20024;-76
2021/05/31 07:46:13;;;;;;;16.75;5.07;;;16.70;54.90;;;;;;5064620;28;20024;-75
2021/05/31 07:48:44;;;;;;;12.18;3.58;;;16.70;54.80;;;;;;5051954;28;20071;-77
2021/05/31 07:51:18;;;;;;;9.05;5.00;;;16.60;54.30;;;;;;5041971;28;20690;-75
2021/05/31 07:53:51;;;;;;;11.43;3.95;;;16.70;54.60;;;;;;5065050;28;20032;-75
2021/05/31 07:56:19;;;;;;;20.25;5.43;;;16.50;55.10;;;;;;5067513;28;20025;-76
2021/05/31 07:58:46;;;;;;;14.18;4.28;;;16.50;56.10;;;;;;5047758;28;20035;-76
2021/05/31 08:01:13;;;;;;;19.60;5.57;;;16.50;55.20;;;;;;5067539;28;20379;-75
2021/05/31 08:03:41;;;;;;;27.70;4.88;;;16.50;55.20;;;;;;5049373;28;20349;-76
2021/05/31 08:06:08;;;;;;;16.17;3.63;;;16.50;55.10;;;;;;5049618;28;20021;-76
2021/05/31 08:08:36;;;;;;;9.32;4.30;;;16.60;56.20;;;;;;5066902;28;20024;-76
2021/05/31 08:11:03;;;;;;;20.75;4.32;;;16.40;56.70;;;;;;5065306;28;20029;-76
2021/05/31 08:13:29;;;;;;;14.63;3.90;;;16.40;55.30;;;;;;5047928;28;20029;-76
2021/05/31 08:15:56;;;;;;;16.33;7.15;;;16.50;55.20;;;;;;5046756;28;20471;-76
2021/05/31 08:18:22;;;;;;;11.80;3.17;;;16.60;55.50;;;;;;5064402;28;20106;-76
2021/05/31 08:20:49;;;;;;;14.68;4.47;;;16.60;56.60;;;;;;5065481;28;20024;-76
2021/05/31 08:23:15;;;;;;;14.43;4.60;;;16.60;57.20;;;;;;5066578;28;20021;-76
2021/05/31 08:25:43;;;;;;;15.23;4.68;;;16.50;56.00;;;;;;5048638;28;20025;-76
2021/05/31 08:28:10;;;;;;;25.13;5.65;;;16.50;56.80;;;;;;5066979;28;20021;-75
2021/05/31 08:30:39;;;;;;;11.77;4.03;;;16.50;55.90;;;;;;5069217;28;20012;-75
2021/05/31 08:33:06;;;;;;;16.48;3.65;;;16.50;56.70;;;;;;5063599;28;20021;-76
2021/05/31 08:35:34;;;;;;;18.17;3.53;;;16.60;56.40;;;;;;5069159;28;20036;-75
2021/05/31 08:38:00;;;;;;;18.08;4.82;;;16.50;56.00;;;;;;5064418;28;20448;-77
2021/05/31 08:40:27;;;;;;;33.05;5.47;;;16.40;55.80;;;;;;5067230;28;20025;-76
2021/05/31 08:42:53;;;;;;;13.73;3.38;;;16.40;55.60;;;;;;5063910;28;20480;-76
2021/05/31 08:45:21;;;;;;;10.90;3.65;;;16.40;55.60;;;;;;5068358;28;20028;-76
2021/05/31 08:47:51;;;;;;;15.77;4.43;;;16.30;57.50;;;;;;5065831;28;20024;-76
2021/05/31 08:50:23;;;;;;;24.13;5.50;;;16.30;55.70;;;;;;5066826;28;20352;-76
2021/05/31 08:52:51;;;;;;;19.30;4.55;;;16.20;57.50;;;;;;5068043;28;20043;-77
2021/05/31 08:55:20;;;;;;;17.23;3.45;;;16.20;58.00;;;;;;5069308;28;20028;-77
2021/05/31 08:57:49;;;;;;;15.65;4.35;;;16.10;57.70;;;;;;5070249;28;20032;-77
2021/05/31 09:00:17;;;;;;;14.93;5.28;;;16.20;57.90;;;;;;5068456;28;20054;-77
2021/05/31 09:02:44;;;;;;;19.70;4.68;;;16.20;56.20;;;;;;5069761;28;20467;-75
2021/05/31 09:05:11;;;;;;;17.63;6.15;;;16.40;57.20;;;;;;5049507;28;20028;-77
2021/05/31 09:07:38;;;;;;;17.95;3.63;;;16.30;56.20;;;;;;5070480;28;20028;-77
2021/05/31 09:10:07;;;;;;;12.75;3.95;;;16.30;57.20;;;;;;5033604;28;20446;-76
2021/05/31 09:12:38;;;;;;;12.02;4.32;;;16.40;56.70;;;;;;5052005;28;20166;-77
2021/05/31 09:15:10;;;;;;;14.35;4.10;;;16.40;57.40;;;;;;5062497;28;20029;-76
2021/05/31 09:17:40;;;;;;;13.27;4.05;;;16.30;57.00;;;;;;5065442;28;20056;-77
2021/05/31 09:20:08;;;;;;;10.77;3.75;;;16.20;56.40;;;;;;5064469;28;20106;-77
2021/05/31 09:22:46;;;;;;;6.43;2.97;;;16.30;56.30;;;;;;5067664;28;20024;-77
2021/05/31 09:25:24;;;;;;;16.75;3.08;;;16.20;56.50;;;;;;5068439;28;20367;-77
2021/05/31 09:27:52;;;;;;;11.13;3.45;;;16.10;56.90;;;;;;5063560;28;20423;-78
2021/05/31 09:30:18;;;;;;;16.83;3.58;;;16.10;58.00;;;;;;5064571;28;20079;-79
2021/05/31 09:32:51;;;;;;;17.27;4.35;;;16.00;57.70;;;;;;5068303;28;20020;-78
2021/05/31 09:35:23;;;;;;;14.48;4.63;;;16.00;57.10;;;;;;5053224;28;20422;-77
2021/05/31 09:37:50;;;;;;;17.48;3.75;;;16.10;56.00;;;;;;5070362;28;20025;-75
2021/05/31 09:40:26;;;;;;;12.20;3.15;;;16.00;57.40;;;;;;5065350;28;20044;-77
2021/05/31 09:42:55;;;;;;;24.77;6.25;;;16.00;57.00;;;;;;5067800;28;20045;-76
2021/05/31 09:45:21;;;;;;;11.93;3.15;;;16.10;56.40;;;;;;5067852;28;20055;-77
2021/05/31 09:47:49;;;;;;;21.05;6.95;;;16.00;57.50;;;;;;5070799;28;20029;-76
2021/05/31 09:50:24;;;;;;;29.52;4.65;;;16.00;58.00;;;;;;5066257;28;20104;-77
2021/05/31 09:53:20;;;;;;;19.80;6.03;;;16.00;56.40;;;;;;5067450;28;20025;-77
2021/05/31 09:55:47;;;;;;;16.52;5.00;;;16.00;55.90;;;;;;5049743;28;20044;-76
2021/05/31 09:58:17;;;;;;;13.00;3.97;;;16.00;55.90;;;;;;5068776;28;20123;-76
2021/05/31 10:00:51;;;;;;;20.90;5.05;;;16.00;57.40;;;;;;5069232;28;20054;-76
2021/05/31 10:03:49;;;;;;;17.67;3.70;;;15.90;56.10;;;;;;5074213;28;20054;-77
2021/05/31 10:06:22;;;;;;;14.55;4.13;;;15.90;57.40;;;;;;5064072;28;20053;-77
2021/05/31 10:08:48;;;;;;;15.57;3.40;;;15.80;57.40;;;;;;5078324;28;20037;-77
2021/05/31 10:11:15;;;;;;;12.20;2.83;;;15.80;57.80;;;;;;5084439;28;20040;-76
2021/05/31 10:13:42;;;;;;;16.95;4.70;;;15.80;57.70;;;;;;5086893;28;20013;-77
2021/05/31 10:16:09;;;;;;;19.35;5.47;;;15.70;57.80;;;;;;5084917;28;20128;-76
2021/05/31 10:18:41;;;;;;;13.75;3.60;;;15.80;56.20;;;;;;5092085;28;20024;-76
2021/05/31 10:21:12;;;;;;;7.97;3.30;;;15.80;56.00;;;;;;5075170;28;20148;-76
2021/05/31 10:23:39;;;;;;;17.42;4.72;;;15.90;57.00;;;;;;5090141;28;20064;-77
2021/05/31 10:26:09;;;;;;;16.13;4.07;;;15.80;57.40;;;;;;5085390;28;20421;-77
2021/05/31 10:28:42;;;;;;;13.38;3.70;;;15.70;57.40;;;;;;5084016;28;20023;-77
2021/05/31 10:31:10;;;;;;;15.48;3.95;;;15.70;58.00;;;;;;5068301;28;20013;-77
2021/05/31 10:33:40;;;;;;;10.93;3.20;;;15.60;58.30;;;;;;5050806;28;20028;-77
2021/05/31 10:36:15;;;;;;;11.32;3.47;;;15.60;57.90;;;;;;5053062;28;20029;-77
2021/05/31 10:38:45;;;;;;;19.25;5.35;;;15.60;58.40;;;;;;5068426;28;20028;-77
2021/05/31 10:41:23;;;;;;;7.00;3.10;;;15.60;57.50;;;;;;5054923;28;20024;-77
2021/05/31 10:43:58;;;;;;;12.65;3.08;;;15.50;57.80;;;;;;5049324;28;20104;-77
2021/05/31 10:46:30;;;;;;;11.40;2.95;;;15.50;58.10;;;;;;5067943;28;20035;-76
2021/05/31 10:48:57;;;;;;;15.00;3.75;;;15.50;58.20;;;;;;5073848;28;20024;-77
2021/05/31 10:51:31;;;;;;;14.50;3.67;;;15.50;58.10;;;;;;5068249;28;20029;-77
2021/05/31 10:54:08;;;;;;;10.20;3.88;;;15.50;58.20;;;;;;5049965;28;20051;-77
2021/05/31 10:56:34;;;;;;;12.25;5.18;;;15.40;58.20;;;;;;5053713;28;20032;-77
2021/05/31 10:59:01;;;;;;;22.13;3.42;;;15.40;58.20;;;;;;5071841;28;20523;-77
2021/05/31 11:01:28;;;;;;;10.95;3.70;;;15.50;56.70;;;;;;5071422;28;20472;-77
2021/05/31 11:04:06;;;;;;;16.25;3.85;;;15.40;56.30;;;;;;5072064;28;20052;-77
2021/05/31 11:06:39;;;;;;;18.77;4.05;;;15.50;57.30;;;;;;5065109;28;20020;-77
2021/05/31 11:09:29;;;;;;;15.00;3.42;;;15.50;57.00;;;;;;5072426;28;20021;-77
2021/05/31 11:11:58;;;;;;;13.18;3.60;;;15.50;57.80;;;;;;5070650;28;20059;-76
2021/05/31 11:14:45;;;;;;;16.33;3.63;;;15.50;57.00;;;;;;5053355;28;20036;-76
2021/05/31 11:17:19;;;;;;;11.77;3.45;;;15.40;58.30;;;;;;5070792;28;20067;-76
2021/05/31 11:19:51;;;;;;;7.25;2.75;;;15.40;59.00;;;;;;5068893;28;20025;-77
2021/05/31 11:22:25;;;;;;;5.90;2.65;;;15.40;59.10;;;;;;5068857;28;20468;-77
2021/05/31 11:24:53;;;;;;;12.45;4.38;;;15.40;59.00;;;;;;5071377;28;20506;-77
2021/05/31 11:27:29;;;;;;;13.45;4.00;;;15.40;59.30;;;;;;5066235;28;20029;-77
2021/05/31 11:29:57;;;;;;;11.25;2.78;;;15.30;60.40;;;;;;5067003;28;20100;-79
2021/05/31 11:32:24;;;;;;;11.90;4.25;;;15.20;59.20;;;;;;5068765;28;20399;-78
2021/05/31 11:34:58;;;;;;;9.10;3.85;;;15.30;59.10;;;;;;5056360;28;20032;-77
2021/05/31 11:37:26;;;;;;;9.95;2.78;;;15.20;59.10;;;;;;5070419;28;20025;-76
2021/05/31 11:39:54;;;;;;;18.38;3.58;;;15.20;59.40;;;;;;5069783;28;20032;-76
2021/05/31 11:42:21;;;;;;;12.13;3.58;;;15.20;58.90;;;;;;5069985;28;20044;-77
2021/05/31 11:44:56;;;;;;;14.50;3.33;;;15.20;59.00;;;;;;5055162;28;20421;-77
2021/05/31 11:47:24;;;;;;;11.68;3.40;;;15.20;59.10;;;;;;5046548;28;20353;-77
2021/05/31 11:49:51;;;;;;;7.20;2.90;;;15.10;59.30;;;;;;5068985;28;20021;-77
2021/05/31 11:52:17;;;;;;;16.65;4.65;;;15.10;59.10;;;;;;5068342;28;20021;-77
2021/05/31 11:54:45;;;;;;;24.50;4.30;;;15.10;57.50;;;;;;5070303;28;20098;-77
2021/05/31 11:57:13;;;;;;;9.05;3.10;;;15.10;58.90;;;;;;5064298;28;20765;-76
2021/05/31 11:59:48;;;;;;;19.15;4.03;;;15.10;57.40;;;;;;5062194;28;20016;-77
2021/05/31 12:02:16;;;;;;;23.25;4.00;;;15.10;57.30;;;;;;5064010;28;20081;-76
2021/05/31 12:04:44;;;;;;;17.77;5.22;;;15.00;56.90;;;;;;5062750;28;20460;-77
2021/05/31 12:07:13;;;;;;;16.13;4.97;;;15.00;58.40;;;;;;5064718;28;20139;-77
2021/05/31 12:09:43;;;;;;;15.27;4.13;;;15.00;57.20;;;;;;5064471;28;20021;-77
2021/05/31 12:12:10;;;;;;;12.35;3.15;;;15.00;57.00;;;;;;5063070;28;20025;-77
2021/05/31 12:14:45;;;;;;;9.00;3.47;;;15.00;56.90;;;;;;5063754;28;20024;-77
2021/05/31 12:17:12;;;;;;;20.38;5.88;;;15.00;58.10;;;;;;5062141;28;20029;-77
2021/05/31 12:19:41;;;;;;;19.80;6.10;;;15.00;57.90;;;;;;5046663;28;20368;-77
2021/05/31 12:22:09;;;;;;;22.63;5.30;;;15.00;58.60;;;;;;5062857;28;20058;-77
2021/05/31 12:24:46;;;;;;;17.50;4.75;;;15.00;58.40;;;;;;5063262;28;20345;-77
2021/05/31 12:27:14;;;;;;;17.77;4.05;;;14.90;58.60;;;;;;5065119;28;20033;-77
2021/05/31 12:29:43;;;;;;;10.60;3.88;;;14.90;59.10;;;;;;5066802;28;20456;-77
2021/05/31 12:32:15;;;;;;;26.13;5.93;;;14.80;58.80;;;;;;5064398;28;20085;-77
2021/05/31 12:34:42;;;;;;;24.35;4.85;;;14.80;60.20;;;;;;5064891;28;20024;-77
2021/05/31 12:37:11;;;;;;;17.88;5.53;;;15.00;60.40;;;;;;5064049;28;20037;-77
2021/05/31 12:39:46;;;;;;;16.95;6.70;;;14.90;59.70;;;;;;5046707;28;20062;-77
2021/05/31 12:42:13;;;;;;;16.35;3.78;;;14.90;59.80;;;;;;5064845;28;20028;-77
2021/05/31 12:44:41;;;;;;;12.43;4.13;;;14.70;59.50;;;;;;5065652;28;20029;-77
2021/05/31 12:47:13;;;;;;;14.27;3.80;;;14.60;59.40;;;;;;5063116;28;20364;-77
2021/05/31 12:49:51;;;;;;;6.50;4.53;;;14.60;59.60;;;;;;5064276;28;20024;-77
2021/05/31 12:52:27;;;;;;;14.13;3.50;;;14.70;60.90;;;;;;5064464;28;20162;-77
2021/05/31 12:55:16;;;;;;;11.93;3.45;;;14.70;60.50;;;;;;5062644;28;20328;-76
2021/05/31 12:57:46;;;;;;;15.23;4.75;;;14.70;60.80;;;;;;5064152;28;20024;-77
2021/05/31 13:00:18;;;;;;;13.68;4.60;;;14.70;60.10;;;;;;5065540;28;20687;-77
2021/05/31 13:02:47;;;;;;;13.75;4.15;;;14.60;59.80;;;;;;5061154;28;20029;-77